Time;durP1;ratioP1;P1;durP2;ratioP2;P2;SDS_P1;SDS_P2;PMS_P1;PMS_P2;Temp;Humidity;BMP_temperature;BMP_pressure;BME280_temperature;BME280_humidity;BME280_pressure;Samples;Min_cycle;Max_cycle;Signal;HPM_P1;HPM_P2
2021/04/30 00:01:08;;;;;;;8.55;6.95;;;;;;;8.94;86.11;95168.78;5031970;28;20049;-49
2021/04/30 00:03:34;;;;;;;10.00;7.53;;;;;;;8.95;85.93;95179.25;5033863;28;20049;-46
2021/04/30 00:06:01;;;;;;;10.48;7.68;;;;;;;9.00;86.86;95181.72;5030781;28;20053;-47
2021/04/30 00:08:27;;;;;;;9.25;7.20;;;;;;;9.02;86.67;95171.34;5028922;28;20518;-49
2021/04/30 00:10:54;;;;;;;9.02;7.43;;;;;;;8.96;85.96;95177.31;5032825;28;20499;-49
2021/04/30 00:13:21;;;;;;;12.25;7.50;;;;;;;8.99;86.57;95177.44;5032781;28;20388;-48
2021/04/30 00:15:48;;;;;;;9.82;7.35;;;;;;;8.91;86.27;95170.25;5029907;28;20058;-47
2021/04/30 00:18:14;;;;;;;9.15;7.00;;;;;;;8.90;85.98;95168.66;5014893;28;20054;-47
2021/04/30 00:20:51;;;;;;;10.60;7.32;;;;;;;8.95;85.51;95173.84;5021702;28;20053;-47
2021/04/30 00:23:18;;;;;;;7.75;6.28;;;;;;;8.85;85.39;95169.69;5033591;28;20069;-47
2021/04/30 00:25:45;;;;;;;9.55;6.88;;;;;;;8.78;85.35;95168.69;5033477;28;20054;-47
2021/04/30 00:28:12;;;;;;;8.13;7.05;;;;;;;8.77;86.70;95162.50;5031053;28;20068;-51
2021/04/30 00:30:39;;;;;;;10.30;6.47;;;;;;;8.79;85.85;95167.56;5032780;28;20432;-48
2021/04/30 00:33:06;;;;;;;9.77;6.57;;;;;;;8.74;85.74;95167.78;5033038;28;20103;-48
2021/04/30 00:35:32;;;;;;;8.60;6.95;;;;;;;8.71;86.51;95163.88;5028277;28;20058;-50
2021/04/30 00:37:59;;;;;;;9.65;6.95;;;;;;;8.71;86.03;95161.19;5032367;28;20079;-48
2021/04/30 00:40:26;;;;;;;9.18;6.60;;;;;;;8.84;85.40;95159.25;5032645;28;20045;-48
2021/04/30 00:43:00;;;;;;;7.95;6.55;;;;;;;8.82;85.82;95153.41;5031249;28;20059;-50
2021/04/30 00:45:30;;;;;;;9.88;7.38;;;;;;;9.40;83.68;95156.63;5032748;28;20041;-51
2021/04/30 00:47:57;;;;;;;10.43;7.40;;;;;;;8.93;84.27;95156.41;5032609;28;20053;-50
2021/04/30 00:50:25;;;;;;;10.32;6.63;;;;;;;8.91;84.77;95154.06;5033316;28;20053;-48
2021/04/30 00:52:52;;;;;;;8.02;6.63;;;;;;;8.79;86.02;95143.28;5032184;28;20136;-48
2021/04/30 00:55:21;;;;;;;9.70;6.05;;;;;;;8.74;85.56;95157.81;5031452;28;20057;-51
2021/04/30 00:58:07;;;;;;;9.27;6.63;;;;;;;8.76;86.13;95154.75;5026795;28;20058;-48
2021/04/30 01:00:35;;;;;;;10.90;7.60;;;;;;;8.79;86.39;95159.47;5026850;28;20062;-48
2021/04/30 01:03:05;;;;;;;9.80;6.57;;;;;;;8.87;87.46;95163.94;5032034;28;20115;-47
2021/04/30 01:05:32;;;;;;;8.73;7.38;;;;;;;8.85;86.90;95160.81;5032865;28;20050;-49
2021/04/30 01:07:59;;;;;;;6.90;5.53;;;;;;;8.73;85.13;95161.63;5027585;28;20191;-50
2021/04/30 01:10:26;;;;;;;7.65;5.78;;;;;;;8.88;85.71;95162.84;5013066;28;20099;-48
2021/04/30 01:12:52;;;;;;;8.95;6.22;;;;;;;8.75;86.68;95161.28;5023989;28;20072;-47
2021/04/30 01:15:19;;;;;;;6.85;6.00;;;;;;;9.11;84.99;95174.72;5023613;28;20087;-49
2021/04/30 01:17:46;;;;;;;9.25;6.45;;;;;;;9.00;83.80;95167.41;5031713;28;20053;-51
2021/04/30 01:20:15;;;;;;;6.78;5.43;;;;;;;8.91;83.57;95177.56;5032898;28;20119;-48
2021/04/30 01:22:44;;;;;;;11.13;7.85;;;;;;;9.31;83.75;95177.59;5032487;28;20534;-51
2021/04/30 01:25:15;;;;;;;9.90;7.20;;;;;;;9.15;83.10;95180.22;5025000;28;20050;-48
2021/04/30 01:27:43;;;;;;;7.57;6.05;;;;;;;9.23;82.83;95181.19;5013833;28;20065;-48
2021/04/30 01:30:20;;;;;;;9.65;7.00;;;;;;;9.05;86.21;95194.16;5017185;28;20041;-48
2021/04/30 01:32:47;;;;;;;6.70;5.78;;;;;;;8.86;84.54;95192.84;5032622;28;20426;-49
2021/04/30 01:35:28;;;;;;;7.55;5.50;;;;;;;8.89;84.84;95189.47;5025161;28;20046;-47
2021/04/30 01:37:56;;;;;;;7.60;6.60;;;;;;;9.52;84.15;95191.69;5018335;28;20053;-46
2021/04/30 01:40:29;;;;;;;7.75;6.03;;;;;;;9.08;85.34;95188.88;5032494;28;20596;-48
2021/04/30 01:43:15;;;;;;;8.48;6.28;;;;;;;9.03;85.22;95186.41;5030561;28;20042;-49
2021/04/30 01:45:42;;;;;;;6.82;5.93;;;;;;;8.94;85.06;95183.06;5012762;28;20144;-47
2021/04/30 01:48:14;;;;;;;7.10;5.30;;;;;;;8.89;84.98;95188.69;5018055;28;20056;-47
2021/04/30 01:50:42;;;;;;;6.13;5.40;;;;;;;9.03;86.36;95183.72;5032228;28;20073;-46
2021/04/30 01:53:10;;;;;;;6.97;5.60;;;;;;;9.16;85.52;95189.09;5030239;28;20045;-47
2021/04/30 01:55:37;;;;;;;6.63;5.93;;;;;;;9.52;84.68;95182.78;5032027;28;20059;-50
2021/04/30 01:58:05;;;;;;;6.47;5.18;;;;;;;9.30;82.13;95179.50;5026295;28;20072;-49
2021/04/30 02:00:32;;;;;;;6.97;5.10;;;;;;;9.45;82.78;95183.38;5032277;28;20111;-47
2021/04/30 02:02:59;;;;;;;6.47;4.80;;;;;;;9.21;84.06;95180.75;5030012;28;20457;-47
2021/04/30 02:05:29;;;;;;;6.55;5.25;;;;;;;9.24;83.37;95177.38;5031730;28;20057;-48
2021/04/30 02:08:00;;;;;;;6.05;5.40;;;;;;;9.15;83.68;95190.22;5017582;28;20045;-50
2021/04/30 02:10:27;;;;;;;6.30;5.00;;;;;;;9.11;84.04;95190.91;5031930;28;20407;-49
2021/04/30 02:12:55;;;;;;;5.78;4.97;;;;;;;9.13;84.49;95190.53;5028221;28;20046;-47
2021/04/30 02:15:24;;;;;;;7.10;5.78;;;;;;;9.23;85.71;95192.78;5012690;28;20057;-46
2021/04/30 02:17:52;;;;;;;7.13;5.47;;;;;;;9.08;85.71;95183.47;5029303;28;20053;-46
2021/04/30 02:20:20;;;;;;;6.90;5.55;;;;;;;9.47;84.28;95200.03;5031438;28;20507;-47
2021/04/30 02:22:56;;;;;;;6.45;5.07;;;;;;;9.13;84.39;95194.06;5030169;28;20475;-46
2021/04/30 02:25:26;;;;;;;5.95;5.10;;;;;;;9.12;85.16;95183.59;5029711;28;20045;-46
2021/04/30 02:27:54;;;;;;;6.13;5.53;;;;;;;9.06;85.94;95185.72;5020373;28;20558;-47
2021/04/30 02:30:22;;;;;;;5.85;5.07;;;;;;;9.18;84.63;95178.75;5010440;28;20046;-46
2021/04/30 02:32:50;;;;;;;6.15;4.85;;;;;;;9.87;81.08;95180.28;5012414;28;20053;-46
2021/04/30 02:35:20;;;;;;;5.97;5.32;;;;;;;9.45;81.96;95183.38;5031305;28;20060;-46
2021/04/30 02:37:47;;;;;;;8.02;6.00;;;;;;;9.84;82.03;95176.34;5020924;28;20126;-48
2021/04/30 02:40:16;;;;;;;7.15;5.72;;;;;;;9.36;85.22;95188.94;5031180;28;20057;-46
2021/04/30 02:42:44;;;;;;;6.80;6.10;;;;;;;9.79;83.60;95189.34;5029889;28;20057;-47
2021/04/30 02:45:13;;;;;;;8.65;6.68;;;;;;;9.88;83.08;95184.56;5030661;28;20054;-48
2021/04/30 02:47:41;;;;;;;7.47;6.13;;;;;;;9.27;85.35;95174.00;5028991;28;20131;-48
2021/04/30 02:50:08;;;;;;;8.43;6.80;;;;;;;9.22;85.81;95176.94;5030463;28;20046;-50
2021/04/30 02:52:35;;;;;;;8.73;6.28;;;;;;;9.64;82.85;95181.97;5030518;28;20395;-48
2021/04/30 02:55:01;;;;;;;10.50;6.55;;;;;;;9.62;82.68;95189.63;5025183;28;20049;-47
2021/04/30 02:57:32;;;;;;;8.80;7.30;;;;;;;9.47;83.51;95189.22;5016068;28;20082;-46
2021/04/30 02:59:59;;;;;;;9.07;7.47;;;;;;;9.56;82.90;95192.56;5027662;28;20111;-49
2021/04/30 03:02:26;;;;;;;7.82;6.78;;;;;;;9.26;83.84;95184.00;5029330;28;20133;-46
2021/04/30 03:04:53;;;;;;;9.00;7.03;;;;;;;9.05;86.00;95186.84;5033046;28;20107;-46
2021/04/30 03:07:20;;;;;;;7.13;6.40;;;;;;;9.29;85.82;95190.63;5013761;28;20050;-46
2021/04/30 03:09:47;;;;;;;7.13;5.95;;;;;;;8.93;84.97;95191.50;5021336;28;20045;-48
2021/04/30 03:12:13;;;;;;;7.97;6.50;;;;;;;9.24;84.37;95185.47;5027190;28;20104;-48
2021/04/30 03:14:40;;;;;;;8.65;6.10;;;;;;;9.11;85.11;95188.19;5026977;28;20127;-48
2021/04/30 03:17:07;;;;;;;9.50;7.45;;;;;;;9.10;85.68;95185.84;5034286;28;20510;-46
2021/04/30 03:19:33;;;;;;;8.77;7.75;;;;;;;9.42;85.04;95186.75;5034676;28;20045;-47
2021/04/30 03:22:00;;;;;;;12.68;6.85;;;;;;;9.22;85.24;95176.94;5031223;28;20046;-47
2021/04/30 03:24:27;;;;;;;11.32;8.52;;;;;;;9.29;85.50;95183.31;5013549;28;20050;-47
2021/04/30 03:26:54;;;;;;;8.65;7.10;;;;;;;9.33;85.02;95172.63;5018599;28;20054;-49
2021/04/30 03:29:20;;;;;;;9.43;8.15;;;;;;;9.80;82.82;95163.88;5034567;28;20058;-50
2021/04/30 03:31:47;;;;;;;9.50;7.30;;;;;;;9.77;82.89;95161.88;5032854;28;20110;-51
2021/04/30 03:34:13;;;;;;;9.38;7.63;;;;;;;9.18;85.66;95155.22;5034336;28;20519;-48
2021/04/30 03:36:40;;;;;;;10.25;8.23;;;;;;;9.67;84.36;95162.38;5021701;28;20092;-48
2021/04/30 03:39:07;;;;;;;10.13;7.65;;;;;;;9.46;84.20;95168.75;5034377;28;20140;-47
2021/04/30 03:41:35;;;;;;;9.43;8.30;;;;;;;9.50;84.39;95175.03;5034101;28;20060;-48
2021/04/30 03:44:03;;;;;;;12.20;9.07;;;;;;;9.00;86.09;95168.22;5032743;28;20057;-48
2021/04/30 03:46:29;;;;;;;10.68;9.02;;;;;;;9.21;85.50;95170.75;5030786;28;20077;-47
2021/04/30 03:48:56;;;;;;;9.82;8.73;;;;;;;9.15;85.93;95172.09;5032582;28;20068;-48
2021/04/30 03:51:26;;;;;;;11.93;8.57;;;;;;;9.32;83.99;95177.22;5032617;28;20053;-46
2021/04/30 03:53:52;;;;;;;12.23;9.68;;;;;;;8.92;85.71;95174.50;5014694;28;20057;-48
2021/04/30 03:56:19;;;;;;;11.50;10.10;;;;;;;9.32;84.95;95187.25;5026557;28;20136;-47
2021/04/30 03:58:45;;;;;;;11.52;9.32;;;;;;;9.30;84.38;95179.50;5026744;28;20445;-48
2021/04/30 04:01:12;;;;;;;12.43;8.93;;;;;;;9.01;85.02;95180.56;5033746;28;20521;-48
2021/04/30 04:03:38;;;;;;;11.07;9.60;;;;;;;8.63;86.45;95180.94;5034022;28;20053;-50
2021/04/30 04:06:05;;;;;;;11.77;9.80;;;;;;;8.54;87.03;95177.56;5032583;28;20053;-48
2021/04/30 04:08:32;;;;;;;13.88;9.65;;;;;;;8.57;86.56;95176.91;5019989;28;20549;-48
2021/04/30 04:10:58;;;;;;;13.80;10.70;;;;;;;8.77;85.58;95175.19;5032711;28;20049;-48
2021/04/30 04:13:26;;;;;;;14.10;11.70;;;;;;;8.82;87.26;95166.91;5033635;28;20418;-47
2021/04/30 04:15:54;;;;;;;13.23;11.32;;;;;;;8.70;88.51;95161.50;5028168;28;20459;-51
2021/04/30 04:18:24;;;;;;;14.18;11.40;;;;;;;9.07;87.40;95149.53;5017399;28;20053;-47
2021/04/30 04:20:52;;;;;;;15.63;12.63;;;;;;;9.20;86.26;95146.81;5032980;28;20049;-47
2021/04/30 04:23:19;;;;;;;13.63;11.90;;;;;;;9.15;84.08;95147.03;5029147;28;20080;-50
2021/04/30 04:25:45;;;;;;;15.30;12.65;;;;;;;8.68;87.44;95153.78;5013882;28;20075;-48
2021/04/30 04:28:12;;;;;;;15.88;13.38;;;;;;;8.81;86.94;95151.84;5024846;28;20057;-47
2021/04/30 04:30:39;;;;;;;18.20;14.18;;;;;;;9.04;85.15;95157.53;5032471;28;20050;-46
2021/04/30 04:33:06;;;;;;;16.70;14.45;;;;;;;8.86;86.26;95168.56;5029691;28;20053;-49
2021/04/30 04:35:33;;;;;;;15.70;14.00;;;;;;;8.84;85.66;95173.53;5013400;28;20466;-46
2021/04/30 04:37:59;;;;;;;17.13;14.73;;;;;;;8.76;85.13;95184.44;5026555;28;20061;-48
2021/04/30 04:40:26;;;;;;;20.25;15.57;;;;;;;8.64;84.39;95193.31;5033581;28;20041;-46
2021/04/30 04:42:53;;;;;;;20.92;16.55;;;;;;;8.85;84.12;95193.97;5033140;28;20084;-46
2021/04/30 04:45:20;;;;;;;24.70;17.88;;;;;;;8.95;83.80;95194.66;5030590;28;20077;-49
2021/04/30 04:47:47;;;;;;;30.00;19.77;;;;;;;9.12;83.63;95199.78;5033401;28;20057;-47
2021/04/30 04:50:15;;;;;;;24.63;20.10;;;;;;;8.88;83.57;95197.91;5032964;28;20053;-47
2021/04/30 04:52:42;;;;;;;24.13;19.60;;;;;;;8.74;83.97;95205.53;5032450;28;20517;-46
2021/04/30 04:55:11;;;;;;;25.40;19.20;;;;;;;8.62;84.81;95199.03;5034965;28;20059;-47
2021/04/30 04:57:39;;;;;;;26.85;20.08;;;;;;;8.64;85.04;95198.69;5041160;28;20049;-46
2021/04/30 05:00:07;;;;;;;25.10;20.40;;;;;;;8.74;84.97;95211.75;5026994;28;20046;-47
2021/04/30 05:02:33;;;;;;;27.00;20.55;;;;;;;9.04;83.49;95209.59;5032971;28;20050;-48
2021/04/30 05:05:01;;;;;;;27.83;21.13;;;;;;;8.88;84.93;95214.09;5028599;28;20545;-48
2021/04/30 05:07:27;;;;;;;25.63;19.48;;;;;;;8.98;83.31;95208.25;5014013;28;20049;-47
2021/04/30 05:09:56;;;;;;;23.25;19.60;;;;;;;9.22;82.67;95212.78;5030264;28;20049;-49
2021/04/30 05:12:22;;;;;;;25.45;18.50;;;;;;;9.04;81.66;95214.19;5030714;28;20114;-49
2021/04/30 05:14:49;;;;;;;26.08;19.73;;;;;;;9.07;82.08;95211.59;5030269;28;20684;-51
2021/04/30 05:17:16;;;;;;;26.17;19.42;;;;;;;9.40;82.50;95223.34;5030709;28;20052;-49
2021/04/30 05:19:43;;;;;;;25.50;19.98;;;;;;;9.39;82.15;95225.22;5028608;28;20053;-50
2021/04/30 05:22:14;;;;;;;22.60;18.10;;;;;;;9.39;83.61;95224.44;5028354;28;20512;-48
2021/04/30 05:24:42;;;;;;;22.17;19.23;;;;;;;8.92;82.04;95223.06;5043394;28;20449;-48
2021/04/30 05:27:10;;;;;;;28.08;21.58;;;;;;;8.71;83.57;95227.78;5016306;28;20495;-48
2021/04/30 05:29:41;;;;;;;25.30;20.88;;;;;;;8.48;83.13;95225.53;5018176;28;20200;-48
2021/04/30 05:32:08;;;;;;;25.10;20.58;;;;;;;8.38;82.83;95226.78;5020924;28;20542;-46
2021/04/30 05:34:37;;;;;;;25.08;19.05;;;;;;;8.42;82.53;95224.19;5019130;28;20061;-47
2021/04/30 05:37:04;;;;;;;25.35;20.13;;;;;;;8.50;81.63;95227.91;5020191;28;20048;-46
2021/04/30 05:39:31;;;;;;;28.67;20.63;;;;;;;8.88;81.12;95227.59;5025308;28;20042;-47
2021/04/30 05:41:57;;;;;;;22.38;19.20;;;;;;;8.78;82.58;95228.03;5013859;28;20054;-47
2021/04/30 05:44:24;;;;;;;26.35;19.30;;;;;;;8.77;83.41;95223.75;5011009;28;20057;-47
2021/04/30 05:46:50;;;;;;;23.52;19.08;;;;;;;8.78;82.66;95214.56;5012228;28;20124;-49
2021/04/30 05:49:17;;;;;;;26.38;19.77;;;;;;;8.60;84.16;95217.47;5010888;28;20050;-50
2021/04/30 05:51:43;;;;;;;22.20;18.05;;;;;;;9.09;80.55;95213.94;5027646;28;20053;-51
2021/04/30 05:54:10;;;;;;;23.83;18.33;;;;;;;9.05;80.52;95218.47;5023672;28;20064;-48
2021/04/30 05:56:36;;;;;;;23.55;19.00;;;;;;;9.08;80.35;95232.06;5011271;28;20137;-47
2021/04/30 05:59:04;;;;;;;21.98;18.48;;;;;;;8.91;81.88;95226.91;5015134;28;20061;-48
2021/04/30 06:01:30;;;;;;;24.45;17.17;;;;;;;9.01;82.17;95231.06;5031337;28;20107;-47
2021/04/30 06:03:57;;;;;;;20.55;17.67;;;;;;;9.41;80.88;95235.72;5021115;28;20057;-47
2021/04/30 06:06:24;;;;;;;25.15;19.67;;;;;;;9.45;78.53;95244.69;5023083;28;20096;-47
2021/04/30 06:08:50;;;;;;;24.00;18.73;;;;;;;9.24;78.48;95247.56;5030134;28;20045;-49
2021/04/30 06:11:17;;;;;;;24.50;20.10;;;;;;;9.16;82.12;95259.25;5032088;28;20415;-47
2021/04/30 06:13:43;;;;;;;22.83;18.45;;;;;;;9.86;77.41;95272.50;5026802;28;20446;-49
2021/04/30 06:16:10;;;;;;;24.42;19.30;;;;;;;9.65;76.29;95267.25;5011991;28;20526;-48
2021/04/30 06:18:36;;;;;;;24.17;18.70;;;;;;;9.39;77.74;95262.25;5022164;28;20061;-46
2021/04/30 06:21:03;;;;;;;25.20;20.02;;;;;;;9.35;78.80;95262.94;5024485;28;20041;-48
2021/04/30 06:23:30;;;;;;;29.55;20.50;;;;;;;9.23;77.54;95267.56;5029754;28;20130;-49
2021/04/30 06:25:56;;;;;;;28.85;20.00;;;;;;;9.14;77.69;95267.69;5031108;28;20144;-48
2021/04/30 06:28:23;;;;;;;25.20;19.15;;;;;;;9.17;78.37;95267.03;5017691;28;20065;-46
2021/04/30 06:30:51;;;;;;;22.77;19.00;;;;;;;9.38;77.11;95261.47;5012144;28;20050;-47
2021/04/30 06:33:17;;;;;;;25.13;18.85;;;;;;;9.47;78.06;95266.75;5021792;28;20530;-47
2021/04/30 06:35:44;;;;;;;21.50;18.27;;;;;;;9.48;78.46;95260.22;5029967;28;20076;-47
2021/04/30 06:38:10;;;;;;;21.35;18.33;;;;;;;9.79;77.74;95262.28;5022864;28;20049;-47
2021/04/30 06:40:37;;;;;;;25.27;18.35;;;;;;;9.81;77.88;95262.69;5040580;28;20139;-49
2021/04/30 06:43:03;;;;;;;22.85;18.25;;;;;;;10.00;77.42;95254.75;5028388;28;20057;-46
2021/04/30 06:45:31;;;;;;;23.42;17.90;;;;;;;9.88;76.25;95241.31;5024397;28;20057;-45
2021/04/30 06:47:58;;;;;;;24.77;18.10;;;;;;;9.56;78.42;95235.00;5028323;28;20062;-47
2021/04/30 06:50:24;;;;;;;19.50;16.63;;;;;;;9.87;76.13;95239.72;5029872;28;20056;-48
2021/04/30 06:52:54;;;;;;;20.60;17.20;;;;;;;10.04;76.46;95244.84;5022680;28;20060;-50
2021/04/30 06:55:20;;;;;;;20.98;17.42;;;;;;;9.59;77.37;95247.81;5014122;28;20044;-49
2021/04/30 06:57:47;;;;;;;23.48;17.90;;;;;;;9.44;77.36;95246.63;5028469;28;20176;-48
2021/04/30 07:00:17;;;;;;;21.20;17.58;;;;;;;9.65;79.61;95245.66;5030096;28;20454;-49
2021/04/30 07:02:44;;;;;;;20.23;17.17;;;;;;;9.71;76.19;95247.75;5030502;28;20065;-48
2021/04/30 07:05:12;;;;;;;19.65;16.55;;;;;;;10.19;76.00;95248.69;5023954;28;20434;-52
2021/04/30 07:07:40;;;;;;;23.25;17.10;;;;;;;9.59;76.31;95245.91;5029938;28;20404;-46
2021/04/30 07:10:09;;;;;;;19.05;15.85;;;;;;;9.52;77.37;95245.72;5030586;28;20046;-49
2021/04/30 07:12:37;;;;;;;21.02;17.70;;;;;;;9.61;78.78;95242.84;5036033;28;20076;-46
2021/04/30 07:15:08;;;;;;;23.33;17.67;;;;;;;10.23;73.67;95251.47;5030393;28;20472;-46
2021/04/30 07:17:35;;;;;;;19.85;16.83;;;;;;;10.00;73.87;95252.03;5030813;28;20057;-46
2021/04/30 07:20:03;;;;;;;23.88;17.88;;;;;;;10.00;71.91;95240.44;5028582;28;20053;-48
2021/04/30 07:22:29;;;;;;;21.92;16.77;;;;;;;9.99;73.69;95236.97;5028972;28;20041;-46
2021/04/30 07:24:56;;;;;;;20.73;15.85;;;;;;;9.85;73.63;95233.88;5038093;28;20045;-49
2021/04/30 07:27:22;;;;;;;23.23;17.75;;;;;;;9.83;77.14;95228.03;5032991;28;20053;-50
2021/04/30 07:29:49;;;;;;;21.98;16.98;;;;;;;10.29;73.76;95223.88;5030208;28;20046;-45
2021/04/30 07:32:16;;;;;;;18.75;16.65;;;;;;;9.97;74.58;95219.53;5030940;28;20049;-52
2021/04/30 07:34:42;;;;;;;20.35;15.68;;;;;;;10.13;71.65;95204.13;5029115;28;20053;-48
2021/04/30 07:37:09;;;;;;;22.15;16.83;;;;;;;9.97;72.34;95198.69;5023366;28;20053;-50
2021/04/30 07:39:36;;;;;;;21.20;17.55;;;;;;;9.88;73.00;95198.06;5035543;28;20410;-49
2021/04/30 07:42:04;;;;;;;20.98;16.10;;;;;;;10.00;72.47;95198.00;5025606;28;20042;-47
2021/04/30 07:44:32;;;;;;;20.60;17.25;;;;;;;10.04;74.30;95195.38;5030784;28;20148;-47
2021/04/30 07:46:59;;;;;;;19.15;16.80;;;;;;;10.07;71.63;95198.19;5031459;28;20038;-47
2021/04/30 07:49:27;;;;;;;20.55;18.02;;;;;;;9.80;74.69;95201.69;5035964;28;20561;-48
2021/04/30 07:51:54;;;;;;;21.23;17.55;;;;;;;10.15;73.96;95211.91;5036309;28;20483;-54
2021/04/30 07:54:20;;;;;;;20.02;17.65;;;;;;;10.33;70.75;95213.16;5032479;28;20068;-47
2021/04/30 07:56:49;;;;;;;23.52;16.88;;;;;;;10.32;72.18;95206.19;5041223;28;20060;-49
2021/04/30 07:59:15;;;;;;;23.20;17.30;;;;;;;10.49;71.86;95207.75;5031154;28;20045;-49
2021/04/30 08:01:42;;;;;;;19.60;16.40;;;;;;;10.33;73.82;95202.34;5036740;28;20056;-45
2021/04/30 08:04:08;;;;;;;19.55;16.20;;;;;;;10.19;72.05;95199.25;5043664;28;20065;-48
2021/04/30 08:06:37;;;;;;;20.00;16.08;;;;;;;10.34;73.28;95195.81;5033212;28;20049;-47
2021/04/30 08:09:05;;;;;;;20.55;16.90;;;;;;;10.55;71.89;95181.22;5036378;28;20548;-56
2021/04/30 08:11:35;;;;;;;18.95;15.80;;;;;;;10.35;71.43;95191.97;5033729;28;20045;-44
2021/04/30 08:14:07;;;;;;;17.75;15.30;;;;;;;10.36;71.52;95182.72;5006047;28;20048;-49
2021/04/30 08:16:37;;;;;;;19.20;16.33;;;;;;;10.71;72.70;95182.00;5016883;28;20536;-48
2021/04/30 08:19:07;;;;;;;20.15;15.93;;;;;;;10.60;72.93;95172.88;5034513;28;20068;-51
2021/04/30 08:21:34;;;;;;;18.05;15.88;;;;;;;10.44;73.44;95170.16;5048611;28;20107;-49
2021/04/30 08:24:01;;;;;;;19.17;16.13;;;;;;;10.48;72.47;95173.72;5035208;28;20045;-46
2021/04/30 08:26:30;;;;;;;22.75;16.95;;;;;;;10.55;72.61;95176.59;5042860;28;20075;-44
2021/04/30 08:28:57;;;;;;;18.67;15.43;;;;;;;10.93;70.78;95178.66;5038306;28;20064;-47
2021/04/30 08:31:23;;;;;;;19.08;17.00;;;;;;;11.19;71.50;95171.88;5042672;28;20042;-49
2021/04/30 08:33:50;;;;;;;20.83;16.52;;;;;;;11.09;70.68;95167.00;5038804;28;20057;-47
2021/04/30 08:36:17;;;;;;;19.40;16.35;;;;;;;11.04;71.01;95164.56;5045237;28;20103;-50
2021/04/30 08:38:44;;;;;;;18.92;14.73;;;;;;;11.08;71.41;95150.00;5038888;28;20052;-50
2021/04/30 08:41:10;;;;;;;21.00;17.13;;;;;;;11.25;71.37;95148.00;5043905;28;20107;-46
2021/04/30 08:43:37;;;;;;;19.02;15.95;;;;;;;11.35;71.66;95145.50;5036793;28;20053;-46
2021/04/30 08:46:05;;;;;;;20.20;16.05;;;;;;;11.13;71.71;95140.78;5039592;28;20062;-50
2021/04/30 08:48:33;;;;;;;17.00;14.75;;;;;;;11.36;71.64;95135.47;5032775;28;20119;-47
2021/04/30 08:51:00;;;;;;;17.08;14.80;;;;;;;11.28;71.77;95136.44;5041577;28;20517;-46
2021/04/30 08:53:27;;;;;;;17.58;15.13;;;;;;;11.36;72.22;95133.53;5028134;28;20129;-51
2021/04/30 08:55:54;;;;;;;18.13;15.55;;;;;;;11.51;69.70;95126.47;5045996;28;20055;-47
2021/04/30 08:58:27;;;;;;;20.35;15.27;;;;;;;11.43;69.72;95130.97;5035857;28;20058;-47
2021/04/30 09:00:55;;;;;;;16.95;14.80;;;;;;;12.01;70.67;95115.81;5033045;28;20525;-47
2021/04/30 09:03:22;;;;;;;18.02;15.10;;;;;;;12.52;68.28;95110.81;5033886;28;21081;-46
2021/04/30 09:05:55;;;;;;;17.08;14.57;;;;;;;12.54;68.48;95119.38;5026084;28;20054;-48
2021/04/30 09:08:24;;;;;;;17.30;14.73;;;;;;;12.76;67.53;95117.75;5030277;28;20049;-49
2021/04/30 09:11:09;;;;;;;17.65;14.88;;;;;;;13.00;68.32;95118.47;5031365;28;20171;-47
2021/04/30 09:13:40;;;;;;;17.80;15.90;;;;;;;12.68;69.56;95107.19;5049326;28;20072;-47
2021/04/30 09:16:07;;;;;;;16.63;14.90;;;;;;;12.91;68.72;95109.84;5025473;28;20521;-46
2021/04/30 09:18:34;;;;;;;18.52;14.05;;;;;;;13.09;67.49;95095.31;5027350;28;20054;-47
2021/04/30 09:21:10;;;;;;;16.45;14.13;;;;;;;12.93;68.53;95102.09;5025776;28;20045;-48
2021/04/30 09:23:45;;;;;;;15.88;14.23;;;;;;;12.77;67.12;95092.22;5025741;28;20502;-46
2021/04/30 09:26:29;;;;;;;16.92;13.80;;;;;;;12.85;66.02;95104.72;5026470;28;20048;-49
2021/04/30 09:29:08;;;;;;;16.55;14.65;;;;;;;13.18;64.30;95095.06;5029160;28;20049;-49
2021/04/30 09:31:45;;;;;;;15.25;13.60;;;;;;;13.51;66.34;95094.31;5032183;28;20434;-47
2021/04/30 09:34:35;;;;;;;14.32;12.82;;;;;;;12.96;67.16;95093.22;5030905;28;20143;-48
2021/04/30 09:37:16;;;;;;;15.07;13.57;;;;;;;13.68;65.68;95084.00;5028971;28;20065;-51
2021/04/30 09:39:57;;;;;;;14.38;12.88;;;;;;;12.84;65.50;95084.16;5027530;28;20068;-49
2021/04/30 09:42:25;;;;;;;17.05;12.73;;;;;;;13.48;64.32;95076.03;5028904;28;20422;-50
2021/04/30 09:44:56;;;;;;;14.23;12.73;;;;;;;13.27;66.10;95076.56;5026124;28;20503;-53
2021/04/30 09:47:28;;;;;;;13.95;12.38;;;;;;;13.40;65.96;95070.91;5042264;28;20049;-49
2021/04/30 09:49:56;;;;;;;13.48;12.07;;;;;;;13.65;64.10;95066.53;5029265;28;20521;-49
2021/04/30 09:52:24;;;;;;;11.68;10.32;;;;;;;13.39;64.39;95067.41;5028693;28;20049;-51
2021/04/30 09:54:53;;;;;;;12.60;9.98;;;;;;;13.59;63.12;95070.72;5025315;28;20045;-49
2021/04/30 09:57:24;;;;;;;13.20;10.50;;;;;;;13.10;64.27;95063.53;5028003;28;20045;-49
2021/04/30 10:00:00;;;;;;;11.23;10.07;;;;;;;13.68;64.56;95059.53;5031581;28;20506;-49
2021/04/30 10:02:32;;;;;;;15.18;11.25;;;;;;;13.77;62.06;95051.88;5029594;28;20076;-48
2021/04/30 10:05:28;;;;;;;12.38;10.30;;;;;;;13.62;63.22;95055.63;5032035;28;20057;-51
2021/04/30 10:08:15;;;;;;;11.02;9.43;;;;;;;13.94;62.07;95061.34;5021539;28;20127;-50
2021/04/30 10:10:42;;;;;;;10.32;8.85;;;;;;;13.36;63.71;95060.00;5030526;28;20041;-50
2021/04/30 10:13:08;;;;;;;11.70;8.63;;;;;;;13.09;64.68;95057.31;5010718;28;20060;-48
2021/04/30 10:15:35;;;;;;;11.05;8.63;;;;;;;13.56;63.99;95053.22;5050641;23;20472;-51
2021/04/30 10:18:03;;;;;;;10.52;8.07;;;;;;;14.19;61.89;95045.25;5010961;28;20069;-52
2021/04/30 10:20:29;;;;;;;9.15;7.03;;;;;;;14.60;59.77;95059.56;5010637;28;20100;-50
2021/04/30 10:22:57;;;;;;;8.68;6.80;;;;;;;14.81;59.90;95048.00;5008877;28;20406;-54
2021/04/30 10:25:28;;;;;;;10.75;7.95;;;;;;;14.62;60.99;95048.28;5003062;28;20081;-51
2021/04/30 10:27:55;;;;;;;9.27;7.32;;;;;;;14.71;59.65;95048.72;4996828;28;20077;-51
2021/04/30 10:30:25;;;;;;;8.13;7.22;;;;;;;15.41;59.09;95046.72;5006513;28;20140;-50
2021/04/30 10:33:15;;;;;;;8.77;7.80;;;;;;;15.37;59.14;95043.19;5003247;28;20060;-49
2021/04/30 10:36:01;;;;;;;9.75;8.75;;;;;;;15.15;58.98;95034.97;5005046;28;20054;-49
2021/04/30 10:38:30;;;;;;;11.82;8.63;;;;;;;15.17;59.37;95029.88;5001303;28;20045;-50
2021/04/30 10:41:02;;;;;;;10.48;9.02;;;;;;;14.48;61.71;95025.22;5005278;28;20046;-50
2021/04/30 10:43:29;;;;;;;10.18;8.32;;;;;;;14.12;63.21;95024.19;5007397;28;20084;-47
2021/04/30 10:46:03;;;;;;;10.00;8.35;;;;;;;14.36;63.64;95022.03;4995516;28;20379;-48
2021/04/30 10:48:31;;;;;;;9.45;8.00;;;;;;;14.94;63.27;95021.22;5008854;28;20054;-49
2021/04/30 10:51:09;;;;;;;10.02;7.43;;;;;;;15.30;61.46;95015.91;5010759;28;20046;-48
2021/04/30 10:53:36;;;;;;;7.45;6.60;;;;;;;15.48;57.66;95014.03;5001278;28;20058;-47
2021/04/30 10:56:25;;;;;;;7.90;6.70;;;;;;;15.19;57.36;95010.44;5007318;28;20052;-47
2021/04/30 10:58:51;;;;;;;8.95;7.05;;;;;;;15.52;59.44;95012.09;5004353;28;20096;-48
2021/04/30 11:01:33;;;;;;;7.95;7.18;;;;;;;15.68;57.21;95006.31;5010818;28;20060;-47
2021/04/30 11:04:09;;;;;;;9.73;7.00;;;;;;;16.10;58.54;95012.97;5007296;28;20050;-48
2021/04/30 11:06:47;;;;;;;8.27;6.75;;;;;;;15.82;55.59;95013.72;5009042;28;20065;-47
2021/04/30 11:09:19;;;;;;;7.65;6.60;;;;;;;16.41;54.38;95007.88;5010431;28;20573;-46
2021/04/30 11:11:47;;;;;;;8.10;6.33;;;;;;;16.50;54.58;95011.75;5010028;28;20057;-50
2021/04/30 11:14:25;;;;;;;8.25;6.75;;;;;;;17.25;51.14;95008.03;5009671;28;20519;-48
2021/04/30 11:16:53;;;;;;;7.22;6.40;;;;;;;16.94;51.60;95004.28;5006003;28;20420;-48
2021/04/30 11:19:25;;;;;;;7.70;6.93;;;;;;;17.32;52.20;95004.50;5010038;28;20414;-50
2021/04/30 11:21:55;;;;;;;8.20;7.03;;;;;;;17.92;49.88;95001.44;5009661;28;20518;-49
2021/04/30 11:24:32;;;;;;;7.50;6.68;;;;;;;19.29;48.36;94996.16;5005913;28;20054;-48
2021/04/30 11:27:11;;;;;;;9.68;7.93;;;;;;;19.25;46.73;94986.44;4995819;28;20603;-48
2021/04/30 11:29:39;;;;;;;8.52;7.72;;;;;;;20.30;43.43;94987.28;5014457;28;20092;-49
2021/04/30 11:32:21;;;;;;;8.35;7.50;;;;;;;19.02;49.33;94973.41;5013425;28;20496;-48
2021/04/30 11:34:57;;;;;;;7.72;6.93;;;;;;;17.80;52.90;94988.22;5014296;28;20050;-50
2021/04/30 11:37:25;;;;;;;7.15;6.45;;;;;;;19.73;45.15;94979.94;5008128;28;20042;-49